createdAt,value
2022-11-22T00:00:40.576Z,77.26
2022-11-22T00:03:07.531Z,78.63
2022-11-22T00:05:34.736Z,76.56
2022-11-22T00:08:01.644Z,74.79
2022-11-22T00:10:28.517Z,78.53
2022-11-22T00:12:55.607Z,82.51
2022-11-22T00:15:22.503Z,78.43
2022-11-22T00:17:49.358Z,74.80
2022-11-22T00:20:16.135Z,73.02
2022-11-22T00:22:44.717Z,76.12
2022-11-22T00:25:11.981Z,76.41
2022-11-22T00:27:38.867Z,74.08
2022-11-22T00:30:06.471Z,69.59
2022-11-22T00:32:33.508Z,72.74
2022-11-22T00:35:00.373Z,73.61
2022-11-22T00:37:27.284Z,75.43
2022-11-22T00:39:54.169Z,71.83
2022-11-22T00:42:21.020Z,71.23
2022-11-22T00:44:47.897Z,75.27
2022-11-22T00:47:14.739Z,73.28
2022-11-22T00:49:41.598Z,71.16
2022-11-22T00:52:08.517Z,72.24
2022-11-22T00:54:35.413Z,73.16
2022-11-22T00:57:02.268Z,70.48
2022-11-22T00:59:29.326Z,72.21
2022-11-22T01:01:56.264Z,65.63
2022-11-22T01:04:23.240Z,68.45
2022-11-22T01:06:50.104Z,69.97
2022-11-22T01:09:19.879Z,70.94
2022-11-22T01:11:46.895Z,74.29
2022-11-22T01:14:14.481Z,75.10
2022-11-22T01:16:41.668Z,72.41
2022-11-22T01:19:08.611Z,74.53
2022-11-22T01:21:35.508Z,72.05
2022-11-22T01:24:02.397Z,69.99
2022-11-22T01:26:29.298Z,73.24
2022-11-22T01:28:56.150Z,73.60
2022-11-22T01:31:23.047Z,71.99
2022-11-22T01:33:49.921Z,69.99
2022-11-22T01:36:16.812Z,70.62
2022-11-22T01:38:43.738Z,73.38
2022-11-22T01:41:10.582Z,70.76
2022-11-22T01:43:37.289Z,72.51
2022-11-22T01:46:08.210Z,75.59
2022-11-22T01:48:42.082Z,71.71
2022-11-22T01:51:17.775Z,73.67
2022-11-22T01:53:44.923Z,76.14
2022-11-22T01:56:13.814Z,76.22
2022-11-22T01:58:42.056Z,76.69
2022-11-22T02:01:09.023Z,79.34
2022-11-22T02:03:37.877Z,83.05
2022-11-22T02:06:05.290Z,81.22
2022-11-22T02:08:45.731Z,77.80
2022-11-22T02:11:12.896Z,83.99
2022-11-22T02:13:42.034Z,86.21
2022-11-22T02:16:10.192Z,80.19
2022-11-22T02:18:37.766Z,79.14
2022-11-22T02:21:05.403Z,80.55
2022-11-22T02:23:35.166Z,79.54
2022-11-22T02:26:03.078Z,82.97
2022-11-22T02:28:31.754Z,81.37
2022-11-22T02:30:58.844Z,75.25
2022-11-22T02:33:25.736Z,78.15
2022-11-22T02:35:52.616Z,76.72
2022-11-22T02:38:32.031Z,73.96
2022-11-22T02:41:09.432Z,74.29
2022-11-22T02:43:37.033Z,74.58
2022-11-22T02:46:09.468Z,73.51
2022-11-22T02:48:44.083Z,75.33
2022-11-22T02:51:16.885Z,73.42
2022-11-22T02:53:45.024Z,77.75
2022-11-22T02:56:12.120Z,74.65
2022-11-22T02:58:39.170Z,77.95
2022-11-22T03:01:06.237Z,82.32
2022-11-22T03:03:33.558Z,81.50
2022-11-22T03:06:02.495Z,80.43
2022-11-22T03:08:29.436Z,81.04
2022-11-22T03:11:01.853Z,82.78
2022-11-22T03:13:28.798Z,82.50
2022-11-22T03:15:55.722Z,80.01
2022-11-22T03:18:22.722Z,82.58
2022-11-22T03:20:49.610Z,82.31
2022-11-22T03:23:16.722Z,83.63
2022-11-22T03:25:43.607Z,85.65
2022-11-22T03:28:10.450Z,81.78
2022-11-22T03:30:40.393Z,78.31
2022-11-22T03:33:07.391Z,77.80
2022-11-22T03:35:34.220Z,74.92
2022-11-22T03:38:00.866Z,81.16
2022-11-22T03:40:27.739Z,81.64
2022-11-22T03:42:54.598Z,74.97
2022-11-22T03:45:21.236Z,77.31
2022-11-22T03:47:48.073Z,74.10
2022-11-22T03:50:15.093Z,80.89
2022-11-22T03:52:41.999Z,76.71
2022-11-22T03:55:09.232Z,81.96
2022-11-22T03:57:36.136Z,80.70
2022-11-22T04:00:03.285Z,85.44
2022-11-22T04:02:30.135Z,86.29
2022-11-22T04:04:57.126Z,80.88
2022-11-22T04:07:24.099Z,82.83
2022-11-22T04:09:50.980Z,84.57
2022-11-22T04:12:17.626Z,84.89
2022-11-22T04:15:03.270Z,90.21
2022-11-22T04:17:43.456Z,88.72
2022-11-22T04:20:33.059Z,83.51
2022-11-22T04:23:05.155Z,89.21
2022-11-22T04:25:33.461Z,89.58
2022-11-22T04:28:00.734Z,93.05
2022-11-22T04:30:48.195Z,94.67
2022-11-22T04:33:16.308Z,91.97
2022-11-22T04:35:44.605Z,94.08
2022-11-22T04:38:12.275Z,91.99
2022-11-22T04:40:39.623Z,91.64
2022-11-22T04:43:25.611Z,91.68
2022-11-22T04:45:52.881Z,91.70
2022-11-22T04:48:19.769Z,92.60
2022-11-22T04:51:05.352Z,91.69
2022-11-22T04:53:32.220Z,93.20
2022-11-22T04:55:59.246Z,93.32
2022-11-22T04:58:26.178Z,96.53
2022-11-22T05:00:53.211Z,98.04
2022-11-22T05:03:20.554Z,96.98
2022-11-22T05:05:47.588Z,95.51
2022-11-22T05:08:14.874Z,95.13
2022-11-22T05:10:57.236Z,94.52
2022-11-22T05:13:31.802Z,92.73
2022-11-22T05:16:00.313Z,86.10
2022-11-22T05:18:27.822Z,88.32
2022-11-22T05:20:54.840Z,90.79
2022-11-22T05:23:41.120Z,91.83
2022-11-22T05:26:08.947Z,91.80
2022-11-22T05:28:37.962Z,95.25
2022-11-22T05:31:09.497Z,95.89
2022-11-22T05:33:37.954Z,95.32
2022-11-22T05:36:05.340Z,90.66
2022-11-22T05:38:32.363Z,92.83
2022-11-22T05:40:59.254Z,90.78
2022-11-22T05:43:26.090Z,90.36
2022-11-22T05:45:52.779Z,93.63
2022-11-22T05:48:19.627Z,90.38
2022-11-22T05:50:46.288Z,94.60
2022-11-22T05:53:13.225Z,94.12
2022-11-22T05:55:40.139Z,93.24
2022-11-22T05:58:07.249Z,94.99
2022-11-22T06:00:34.099Z,93.31
2022-11-22T06:03:01.833Z,96.14
2022-11-22T06:05:29.160Z,95.98
2022-11-22T06:08:00.422Z,94.47
2022-11-22T06:10:27.618Z,92.42
2022-11-22T06:12:55.211Z,93.15
2022-11-22T06:15:22.232Z,99.59
2022-11-22T06:17:49.074Z,100.00
2022-11-22T06:20:16.018Z,100.00
2022-11-22T06:22:42.914Z,100.00
2022-11-22T06:25:09.839Z,100.00
2022-11-22T06:27:36.777Z,98.24
2022-11-22T06:30:03.977Z,94.65
2022-11-22T06:32:33.869Z,96.02
2022-11-22T06:35:01.987Z,97.40
2022-11-22T06:37:29.631Z,99.45
2022-11-22T06:39:56.565Z,100.00
2022-11-22T06:42:23.440Z,100.00
2022-11-22T06:44:50.343Z,100.00
2022-11-22T06:47:17.946Z,96.85
2022-11-22T06:49:45.752Z,99.49
2022-11-22T06:52:12.731Z,99.75
2022-11-22T06:54:39.646Z,95.90
2022-11-22T06:57:13.564Z,94.43
2022-11-22T06:59:40.618Z,94.07
2022-11-22T07:02:12.225Z,94.83
2022-11-22T07:04:51.128Z,95.36
2022-11-22T07:07:26.280Z,94.77
2022-11-22T07:09:56.447Z,96.32
2022-11-22T07:12:23.784Z,100.00
2022-11-22T07:14:50.694Z,96.94
2022-11-22T07:17:17.548Z,98.46
2022-11-22T07:19:44.404Z,100.00
2022-11-22T07:22:11.064Z,99.17
2022-11-22T07:24:38.214Z,100.00
2022-11-22T07:27:05.077Z,100.00
2022-11-22T07:29:32.251Z,98.07
2022-11-22T07:31:59.310Z,98.18
2022-11-22T07:34:26.222Z,100.00
2022-11-22T07:36:58.431Z,99.98
2022-11-22T07:39:26.686Z,99.99
2022-11-22T07:41:53.554Z,100.00
2022-11-22T07:44:20.576Z,100.00
2022-11-22T07:46:48.908Z,99.83
2022-11-22T07:49:15.872Z,100.00
2022-11-22T07:51:42.724Z,100.00
2022-11-22T07:54:11.812Z,100.00
2022-11-22T07:56:38.705Z,100.00
2022-11-22T07:59:05.573Z,100.00
2022-11-22T08:01:32.477Z,100.00
2022-11-22T08:03:59.387Z,100.00
2022-11-22T08:06:26.437Z,100.00
2022-11-22T08:08:57.235Z,100.00
2022-11-22T08:11:28.586Z,100.00
2022-11-22T08:13:55.433Z,100.00
2022-11-22T08:16:22.315Z,100.00
2022-11-22T08:18:50.279Z,100.00
2022-11-22T08:21:17.726Z,100.00
2022-11-22T08:23:45.378Z,100.00
2022-11-22T08:26:14.371Z,100.00
2022-11-22T08:28:42.091Z,98.67
2022-11-22T08:31:19.183Z,100.00
2022-11-22T08:33:46.646Z,100.00
2022-11-22T08:36:13.518Z,100.00
2022-11-22T08:38:42.039Z,100.00
2022-11-22T08:41:08.988Z,100.00
2022-11-22T08:43:35.878Z,100.00
2022-11-22T08:46:03.030Z,99.18
2022-11-22T08:48:31.291Z,96.66
2022-11-22T08:51:01.918Z,97.91
2022-11-22T08:53:30.124Z,95.80
2022-11-22T08:55:59.517Z,97.51
2022-11-22T08:58:26.641Z,91.68
2022-11-22T09:00:55.645Z,93.61
2022-11-22T09:03:22.703Z,95.36
2022-11-22T09:08:40.390Z,94.35
2022-11-22T09:11:15.418Z,96.88
2022-11-22T09:13:43.003Z,97.48
2022-11-22T09:16:12.524Z,95.78
2022-11-22T09:18:39.910Z,97.29
2022-11-22T09:21:15.893Z,98.64
2022-11-22T09:23:46.485Z,98.06
2022-11-22T09:26:20.492Z,98.98
2022-11-22T09:28:47.678Z,95.87
2022-11-22T09:31:20.026Z,94.36
2022-11-22T09:33:47.553Z,93.63
2022-11-22T09:36:26.415Z,92.71
2022-11-22T09:38:53.710Z,94.22
2022-11-22T09:41:37.118Z,96.58
2022-11-22T09:44:12.677Z,95.88
2022-11-22T09:46:58.627Z,96.57
2022-11-22T09:49:30.780Z,97.12
2022-11-22T09:52:21.288Z,99.14
2022-11-22T09:54:58.200Z,96.22
2022-11-22T09:57:28.821Z,95.88
2022-11-22T10:00:06.328Z,96.96
2022-11-22T10:02:58.737Z,97.71
2022-11-22T10:05:28.250Z,96.58
2022-11-22T10:08:04.695Z,99.66
2022-11-22T10:10:42.980Z,96.14
2022-11-22T10:13:18.979Z,97.17
2022-11-22T10:16:09.837Z,96.85
2022-11-22T10:18:55.687Z,94.94
2022-11-22T10:21:22.634Z,97.65
2022-11-22T10:23:49.492Z,99.76
2022-11-22T10:26:28.147Z,100.00
2022-11-22T10:29:23.393Z,100.00
2022-11-22T10:32:13.443Z,99.24
2022-11-22T10:34:58.895Z,99.30
2022-11-22T10:37:35.584Z,100.00
2022-11-22T10:40:23.824Z,97.18
2022-11-22T10:43:27.482Z,97.79
2022-11-22T10:46:06.853Z,98.30
2022-11-22T10:48:55.496Z,97.90
2022-11-22T10:52:12.081Z,97.68
2022-11-22T10:54:54.982Z,97.99
2022-11-22T10:57:36.495Z,95.87
2022-11-22T11:00:16.915Z,96.19
2022-11-22T11:03:09.362Z,97.79
2022-11-22T11:11:37.981Z,99.99
2022-11-22T11:14:08.840Z,98.08
2022-11-22T11:16:36.879Z,95.65
2022-11-22T11:19:35.777Z,98.17
2022-11-22T11:22:15.517Z,98.25
2022-11-22T11:24:42.452Z,99.03
2022-11-22T11:27:11.955Z,99.00
2022-11-22T11:29:43.906Z,98.57
2022-11-22T11:32:20.253Z,95.90
2022-11-22T11:34:57.582Z,95.79
2022-11-22T11:37:27.159Z,94.51
2022-11-22T11:39:54.047Z,94.80
2022-11-22T11:42:27.247Z,94.63
2022-11-22T11:44:54.609Z,97.64
2022-11-22T11:47:34.853Z,96.88
2022-11-22T11:50:01.725Z,97.38
2022-11-22T11:52:29.970Z,97.71
2022-11-22T11:54:58.669Z,96.43
2022-11-22T11:57:34.443Z,94.43
2022-11-22T12:00:04.197Z,94.67
2022-11-22T12:02:40.732Z,96.69
2022-11-22T12:05:13.870Z,95.35
2022-11-22T12:07:44.962Z,95.01
2022-11-22T12:10:32.603Z,92.18
2022-11-22T12:13:21.918Z,92.88
2022-11-22T12:16:22.408Z,90.66
2022-11-22T12:18:53.906Z,89.54
2022-11-22T12:21:25.552Z,90.40
2022-11-22T12:24:13.246Z,87.90
2022-11-22T12:26:43.885Z,90.91
2022-11-22T12:29:13.442Z,91.14
2022-11-22T12:31:44.798Z,91.21
2022-11-22T12:34:22.081Z,88.80
2022-11-22T12:37:01.321Z,88.96
2022-11-22T12:39:30.034Z,86.95
2022-11-22T12:42:09.661Z,86.14
2022-11-22T12:44:39.170Z,88.03
2022-11-22T12:47:24.803Z,87.68
2022-11-22T12:50:00.487Z,87.65
2022-11-22T12:52:58.158Z,89.51
2022-11-22T12:55:27.620Z,89.14
2022-11-22T12:58:06.832Z,87.51
2022-11-22T13:00:36.410Z,87.24
2022-11-22T13:03:14.262Z,87.41
2022-11-22T13:05:45.101Z,88.14
2022-11-22T13:08:18.266Z,88.27
2022-11-22T13:11:03.811Z,89.91
2022-11-22T13:13:34.610Z,89.18
2022-11-22T13:16:03.206Z,89.84
2022-11-22T13:18:36.674Z,88.13
2022-11-22T13:21:25.809Z,89.98
2022-11-22T13:24:01.528Z,90.14
2022-11-22T13:26:42.771Z,89.45
2022-11-22T13:29:30.693Z,89.52
2022-11-22T13:32:16.629Z,90.09
2022-11-22T13:35:01.160Z,91.35
2022-11-22T13:37:29.394Z,90.90
2022-11-22T13:39:57.333Z,91.37
2022-11-22T13:42:27.020Z,93.16
2022-11-22T13:44:56.920Z,91.35
2022-11-22T13:47:23.800Z,92.16
2022-11-22T13:49:51.757Z,92.52
2022-11-22T13:52:18.555Z,91.02
2022-11-22T13:54:48.379Z,91.05
2022-11-22T13:57:29.089Z,91.74
2022-11-22T14:00:19.940Z,92.68
2022-11-22T14:02:48.360Z,94.39
2022-11-22T14:05:30.445Z,92.79
2022-11-22T14:07:57.531Z,94.91
2022-11-22T14:10:49.348Z,92.60
2022-11-22T14:13:37.689Z,94.01
2022-11-22T14:16:07.834Z,93.33
2022-11-22T14:18:53.133Z,94.25
2022-11-22T14:21:54.281Z,94.50
2022-11-22T14:24:27.227Z,96.26
2022-11-22T14:27:17.821Z,96.60
2022-11-22T14:29:53.765Z,96.38
2022-11-22T14:32:23.523Z,95.11
2022-11-22T14:35:18.130Z,95.39
2022-11-22T14:37:48.688Z,95.52
2022-11-22T14:40:28.004Z,98.17
2022-11-22T14:42:57.818Z,96.40
2022-11-22T14:45:42.585Z,94.79
2022-11-22T14:48:29.208Z,94.68
2022-11-22T14:51:05.302Z,95.30
2022-11-22T14:53:53.768Z,95.55
2022-11-22T14:56:27.837Z,91.99
2022-11-22T14:58:57.289Z,92.06
2022-11-22T15:01:56.703Z,92.87
2022-11-22T15:09:10.442Z,89.95
2022-11-22T15:09:12.788Z,89.21
2022-11-22T15:11:12.835Z,91.74
2022-11-22T15:14:17.355Z,89.45
2022-11-22T15:59:41.540Z,100.00
2022-11-22T16:02:15.193Z,100.00
2022-11-22T16:04:48.774Z,100.00
2022-11-22T16:07:45.697Z,100.00
2022-11-22T16:10:33.934Z,100.00
2022-11-22T16:13:14.476Z,100.00
2022-11-22T16:15:41.524Z,100.00
2022-11-22T16:18:18.233Z,100.00
2022-11-22T16:21:21.738Z,100.00
2022-11-22T16:24:08.679Z,100.00
2022-11-22T16:26:35.567Z,100.00
2022-11-22T16:29:20.018Z,100.00
2022-11-22T16:31:46.935Z,100.00
2022-11-22T16:34:14.201Z,100.00
2022-11-22T16:36:41.099Z,100.00
2022-11-22T16:39:07.941Z,100.00
2022-11-22T16:41:34.697Z,100.00
2022-11-22T16:44:03.333Z,100.00
2022-11-22T16:46:30.616Z,100.00
2022-11-22T16:48:57.462Z,100.00
2022-11-22T16:51:30.478Z,100.00
2022-11-22T16:53:59.744Z,100.00
2022-11-22T16:56:30.598Z,100.00
2022-11-22T16:58:58.369Z,100.00
2022-11-22T17:01:27.627Z,100.00
2022-11-22T17:03:56.155Z,100.00
2022-11-22T17:06:25.787Z,100.00
2022-11-22T17:08:54.734Z,100.00
2022-11-22T17:11:24.358Z,100.00
2022-11-22T17:13:51.564Z,100.00
2022-11-22T17:16:18.423Z,100.00
2022-11-22T17:18:46.346Z,100.00
2022-11-22T17:21:26.608Z,100.00
2022-11-22T17:23:55.428Z,100.00
2022-11-22T17:26:22.537Z,100.00
2022-11-22T17:28:49.446Z,100.00
2022-11-22T17:31:18.284Z,100.00
2022-11-22T17:33:45.258Z,100.00
2022-11-22T17:36:22.747Z,100.00
2022-11-22T17:38:49.609Z,100.00
2022-11-22T17:41:16.343Z,100.00
2022-11-22T17:43:43.263Z,100.00
2022-11-22T17:46:10.143Z,100.00
2022-11-22T17:48:37.035Z,100.00
2022-11-22T17:51:11.682Z,100.00
2022-11-22T17:53:38.944Z,100.00
2022-11-22T17:56:11.182Z,100.00
2022-11-22T17:58:39.887Z,100.00
2022-11-22T18:01:17.579Z,100.00
2022-11-22T18:03:44.698Z,100.00
2022-11-22T18:06:12.976Z,100.00
2022-11-22T18:08:46.983Z,100.00
2022-11-22T18:11:14.484Z,100.00
2022-11-22T18:13:41.609Z,100.00
2022-11-22T18:16:12.333Z,100.00
2022-11-22T18:21:29.579Z,100.00
2022-11-22T18:23:58.000Z,100.00
2022-11-22T18:26:39.369Z,100.00
2022-11-22T18:31:54.968Z,100.00
2022-11-22T18:34:24.782Z,100.00
2022-11-22T18:39:40.679Z,100.00
2022-11-22T18:42:13.202Z,100.00
2022-11-22T18:44:40.267Z,100.00
2022-11-22T18:47:07.417Z,100.00
2022-11-22T18:49:34.801Z,100.00
2022-11-22T18:52:02.004Z,100.00
2022-11-22T18:54:28.984Z,100.00
2022-11-22T18:56:56.073Z,100.00
2022-11-22T18:59:22.992Z,100.00
2022-11-22T19:01:49.855Z,100.00
2022-11-22T19:04:17.311Z,100.00
2022-11-22T19:06:44.659Z,100.00
2022-11-22T19:09:11.557Z,100.00
2022-11-22T19:11:38.500Z,100.00
2022-11-22T19:14:05.585Z,100.00
2022-11-22T19:16:32.588Z,100.00
2022-11-22T19:18:59.807Z,100.00
2022-11-22T19:21:28.333Z,100.00
2022-11-22T19:23:56.460Z,100.00
2022-11-22T19:26:26.162Z,100.00
2022-11-22T19:28:57.840Z,100.00
2022-11-22T19:31:28.010Z,100.00
2022-11-22T19:33:55.293Z,100.00
2022-11-22T19:36:27.896Z,100.00
2022-11-22T19:38:59.890Z,100.00
2022-11-22T19:41:26.932Z,100.00
2022-11-22T19:43:53.907Z,100.00
2022-11-22T19:46:21.313Z,100.00
2022-11-22T19:48:56.165Z,100.00
2022-11-22T19:51:24.090Z,100.00
2022-11-22T19:54:07.777Z,100.00
2022-11-22T19:56:36.996Z,100.00
2022-11-22T19:59:07.532Z,100.00
2022-11-22T20:01:35.282Z,100.00
2022-11-22T20:04:05.000Z,100.00
2022-11-22T20:06:33.355Z,100.00
2022-11-22T20:09:01.974Z,100.00
2022-11-22T20:11:28.814Z,100.00
2022-11-22T20:13:55.532Z,100.00
2022-11-22T20:16:24.851Z,100.00
2022-11-22T20:18:59.508Z,100.00
2022-11-22T20:21:28.443Z,100.00
2022-11-22T20:23:56.873Z,100.00
2022-11-22T20:26:24.721Z,100.00
2022-11-22T20:28:56.552Z,100.00
2022-11-22T20:31:24.194Z,100.00
2022-11-22T20:33:53.431Z,100.00
2022-11-22T20:36:29.059Z,100.00
2022-11-22T20:38:56.732Z,100.00
2022-11-22T20:41:27.429Z,100.00
2022-11-22T20:43:54.598Z,100.00
2022-11-22T20:46:26.946Z,100.00
2022-11-22T20:48:59.402Z,100.00
2022-11-22T20:51:27.379Z,100.00
2022-11-22T20:53:54.878Z,100.00
2022-11-22T20:56:22.144Z,100.00
2022-11-22T20:58:49.222Z,100.00
2022-11-22T21:01:21.558Z,100.00
2022-11-22T21:03:48.641Z,100.00
2022-11-22T21:06:16.330Z,100.00
2022-11-22T21:08:44.796Z,100.00
2022-11-22T21:11:20.684Z,100.00
2022-11-22T21:13:47.637Z,100.00
2022-11-22T21:16:24.638Z,100.00
2022-11-22T21:18:52.730Z,100.00
2022-11-22T21:21:23.166Z,100.00
2022-11-22T21:23:52.162Z,100.00
2022-11-22T21:26:19.369Z,100.00
2022-11-22T21:28:46.249Z,100.00
2022-11-22T21:31:13.123Z,100.00
2022-11-22T21:33:39.985Z,100.00
2022-11-22T21:36:07.070Z,100.00
2022-11-22T21:38:38.639Z,100.00
2022-11-22T21:41:38.252Z,100.00
2022-11-22T21:43:56.655Z,100.00
2022-11-22T21:46:24.479Z,100.00
2022-11-22T21:48:51.988Z,100.00
2022-11-22T21:51:18.966Z,100.00
2022-11-22T21:53:45.936Z,100.00
2022-11-22T21:56:12.808Z,100.00
2022-11-22T21:58:39.670Z,100.00
2022-11-22T22:01:12.304Z,100.00
2022-11-22T22:03:40.643Z,100.00
2022-11-22T22:06:07.813Z,100.00
2022-11-22T22:08:34.863Z,100.00
2022-11-22T22:11:04.119Z,100.00
2022-11-22T22:13:31.391Z,100.00
2022-11-22T22:15:59.509Z,100.00
2022-11-22T22:18:37.757Z,100.00
2022-11-22T22:21:08.438Z,100.00
2022-11-22T22:23:36.523Z,100.00
2022-11-22T22:26:05.677Z,100.00
2022-11-22T22:28:34.611Z,100.00
2022-11-22T22:31:12.948Z,100.00
2022-11-22T22:33:41.762Z,100.00
2022-11-22T22:36:10.370Z,100.00
2022-11-22T22:38:38.441Z,100.00
2022-11-22T22:41:06.301Z,100.00
2022-11-22T22:43:38.407Z,100.00
2022-11-22T22:46:14.016Z,100.00
2022-11-22T22:48:41.494Z,100.00
2022-11-22T22:51:11.904Z,100.00
2022-11-22T22:53:39.230Z,100.00
2022-11-22T22:56:07.314Z,100.00
2022-11-22T22:58:34.553Z,100.00
2022-11-22T23:01:08.941Z,100.00
2022-11-22T23:03:36.348Z,100.00
2022-11-22T23:06:11.563Z,100.00
2022-11-22T23:08:39.014Z,100.00
2022-11-22T23:11:10.388Z,100.00
2022-11-22T23:13:38.779Z,100.00
2022-11-22T23:16:06.834Z,100.00
2022-11-22T23:18:38.488Z,100.00
2022-11-22T23:21:06.729Z,100.00
2022-11-22T23:23:34.381Z,100.00
2022-11-22T23:26:03.425Z,100.00
2022-11-22T23:28:30.591Z,100.00
2022-11-22T23:31:04.461Z,100.00
2022-11-22T23:33:31.356Z,100.00
2022-11-22T23:36:02.879Z,100.00
2022-11-22T23:38:29.802Z,100.00
2022-11-22T23:40:56.638Z,100.00
2022-11-22T23:43:23.307Z,100.00
2022-11-22T23:45:50.184Z,100.00
2022-11-22T23:48:17.089Z,100.00
2022-11-22T23:50:43.956Z,100.00
2022-11-22T23:53:10.959Z,100.00
2022-11-22T23:55:37.817Z,100.00
2022-11-22T23:58:04.470Z,100.00
